Bedum, Netherlands
Current Conditions -  °F | °C
As of 12:55 AM on Friday 28 Nov 2014 (Local Time) from EHGG Reporting Station
Clear Clear  
Wind Chill: 32°   Ceiling: Unl
Heat Index: 39°   Visibility: 4mi
Dew Point: 36°   Wind: 10mph
Humidity: 87%   Direction: 110°ESE
Pressure: 29.8"   Gusts: NA
Location:  53.3°N, 6.6°E
Report Text: EHGG 272355Z AUTO 11009KT 080V150 7000 NSC 04/02 Q1009
Loading
Personal Weather Stations






























Interactive Weather Map New forecast layout! Learn more

10-Day Weather Forecast

Advertisements
Track Severe Weather on mobile